createdAt,value
2023-04-02T00:00:20.518Z,5.70
2023-04-02T00:03:00.092Z,5.60
2023-04-02T00:05:52.273Z,5.60
2023-04-02T00:08:27.553Z,5.50
2023-04-02T00:10:57.923Z,5.50
2023-04-02T00:13:33.540Z,5.40
2023-04-02T00:16:04.139Z,5.30
2023-04-02T00:18:35.464Z,5.30
2023-04-02T00:21:11.520Z,5.20
2023-04-02T00:23:41.377Z,5.20
2023-04-02T00:26:23.239Z,5.10
2023-04-02T00:28:52.715Z,5.00
2023-04-02T00:31:22.740Z,4.90
2023-04-02T00:33:53.607Z,4.90
2023-04-02T00:36:23.163Z,4.90
2023-04-02T00:38:51.645Z,4.80
2023-04-02T00:41:25.035Z,4.80
2023-04-02T00:43:54.697Z,4.80
2023-04-02T00:46:30.171Z,4.80
2023-04-02T00:49:04.178Z,4.70
2023-04-02T00:51:37.108Z,4.70
2023-04-02T00:54:08.221Z,4.70
2023-04-02T00:56:43.809Z,4.70
2023-04-02T00:59:21.681Z,4.60
2023-04-02T01:01:55.329Z,4.60
2023-04-02T01:04:34.649Z,4.50
2023-04-02T01:07:10.574Z,4.50
2023-04-02T01:09:54.216Z,4.40
2023-04-02T01:12:42.227Z,4.30
2023-04-02T01:15:16.915Z,4.20
2023-04-02T01:17:58.639Z,4.20
2023-04-02T01:20:56.529Z,4.10
2023-04-02T01:23:32.150Z,4.10
2023-04-02T01:26:11.277Z,4.10
2023-04-02T01:29:06.915Z,4.10
2023-04-02T01:31:36.946Z,4.00
2023-04-02T01:34:08.859Z,4.00
2023-04-02T01:36:44.930Z,4.00
2023-04-02T01:39:23.516Z,4.00
2023-04-02T01:41:57.685Z,3.90
2023-04-02T01:44:31.305Z,3.90
2023-04-02T01:47:03.927Z,3.80
2023-04-02T01:49:33.808Z,3.80
2023-04-02T01:52:02.045Z,3.80
2023-04-02T01:54:30.528Z,3.80
2023-04-02T01:56:59.414Z,3.80
2023-04-02T01:59:29.710Z,3.70
2023-04-02T02:02:04.327Z,3.70
2023-04-02T02:04:33.986Z,3.60
2023-04-02T02:07:03.849Z,3.60
2023-04-02T02:09:36.631Z,3.60
2023-04-02T02:12:06.720Z,3.60
2023-04-02T02:14:37.483Z,3.50
2023-04-02T02:17:13.472Z,3.50
2023-04-02T02:19:45.471Z,3.60
2023-04-02T02:22:20.174Z,3.50
2023-04-02T02:24:48.993Z,3.50
2023-04-02T02:27:45.259Z,3.50
2023-04-02T02:30:20.491Z,3.50
2023-04-02T02:32:55.685Z,3.50
2023-04-02T02:35:28.229Z,3.50
2023-04-02T02:38:02.810Z,3.50
2023-04-02T02:40:36.575Z,3.40
2023-04-02T02:43:10.978Z,3.40
2023-04-02T02:45:43.147Z,3.30
2023-04-02T02:48:14.870Z,3.30
2023-04-02T02:50:44.448Z,3.30
2023-04-02T02:53:20.909Z,3.20
2023-04-02T02:55:52.776Z,3.20
2023-04-02T02:58:26.559Z,3.20
2023-04-02T03:00:56.776Z,3.20
2023-04-02T03:03:31.472Z,3.10
2023-04-02T03:06:05.445Z,3.10
2023-04-02T03:08:38.223Z,3.00
2023-04-02T03:11:10.240Z,3.00
2023-04-02T03:13:42.140Z,3.00
2023-04-02T03:16:18.883Z,2.90
2023-04-02T03:18:55.597Z,2.80
2023-04-02T03:21:29.622Z,2.80
2023-04-02T03:24:02.661Z,2.80
2023-04-02T03:26:36.980Z,2.80
2023-04-02T03:29:13.643Z,2.80
2023-04-02T03:31:46.026Z,2.70
2023-04-02T03:34:22.050Z,2.70
2023-04-02T03:36:56.848Z,2.70
2023-04-02T03:39:34.605Z,2.60
2023-04-02T03:42:11.618Z,2.70
2023-04-02T03:44:48.235Z,2.60
2023-04-02T03:47:22.179Z,2.60
2023-04-02T03:49:57.315Z,2.60
2023-04-02T03:52:28.501Z,2.50
2023-04-02T03:55:01.608Z,2.50
2023-04-02T03:57:37.741Z,2.40
2023-04-02T04:00:16.498Z,2.30
2023-04-02T04:02:50.776Z,2.30
2023-04-02T04:05:27.466Z,2.30
2023-04-02T04:08:01.078Z,2.30
2023-04-02T04:10:30.557Z,2.30
2023-04-02T04:13:08.757Z,2.20
2023-04-02T04:15:40.550Z,2.20
2023-04-02T04:18:21.692Z,2.20
2023-04-02T04:20:57.609Z,2.10
2023-04-02T04:23:31.735Z,2.10
2023-04-02T04:26:05.623Z,2.10
2023-04-02T04:28:42.239Z,2.10
2023-04-02T04:31:24.629Z,2.10
2023-04-02T04:34:05.196Z,2.10
2023-04-02T04:36:37.786Z,2.10
2023-04-02T04:39:14.726Z,2.10
2023-04-02T04:41:45.732Z,2.10
2023-04-02T04:44:18.211Z,2.10
2023-04-02T04:46:53.902Z,2.10
2023-04-02T04:49:28.687Z,2.10
2023-04-02T04:52:00.061Z,2.10
2023-04-02T04:54:30.214Z,2.00
2023-04-02T04:57:03.785Z,2.00
2023-04-02T04:59:38.499Z,2.00
2023-04-02T05:02:11.865Z,2.00
2023-04-02T05:04:43.799Z,2.00
2023-04-02T05:07:17.513Z,2.00
2023-04-02T05:09:53.973Z,2.00
2023-04-02T05:12:38.965Z,2.00
2023-04-02T05:56:24.055Z,1.70
2023-04-02T07:43:33.147Z,1.30
2023-04-02T11:13:50.789Z,2.30
2023-04-02T11:43:56.187Z,2.50
2023-04-02T11:52:11.550Z,2.60
2023-04-02T12:09:40.715Z,2.60
2023-04-02T12:20:20.766Z,2.60
2023-04-02T12:23:02.033Z,2.50
2023-04-02T12:46:41.237Z,3.00
2023-04-02T13:17:27.197Z,2.50
2023-04-02T13:29:05.948Z,2.70
2023-04-02T13:31:45.522Z,3.20
2023-04-02T13:37:47.819Z,3.70
2023-04-02T13:44:53.562Z,3.60
2023-04-02T13:48:24.720Z,3.50
2023-04-02T13:58:57.590Z,3.60
2023-04-02T14:02:06.894Z,3.50
2023-04-02T14:04:51.153Z,3.70
2023-04-02T14:08:14.404Z,3.70
2023-04-02T15:08:20.558Z,3.70
2023-04-02T15:14:31.737Z,3.80
2023-04-02T15:18:08.259Z,4.00
2023-04-02T15:45:03.348Z,3.40
2023-04-02T15:52:13.376Z,3.30
2023-04-02T15:59:12.234Z,3.30
2023-04-02T16:13:45.625Z,3.20
2023-04-02T16:43:46.134Z,2.80
2023-04-02T16:54:11.826Z,2.70
2023-04-02T17:01:20.214Z,2.70
2023-04-02T17:12:03.050Z,2.70
2023-04-02T17:15:24.713Z,2.70
2023-04-02T17:22:17.230Z,2.70
2023-04-02T17:25:16.456Z,2.70
2023-04-02T17:36:30.714Z,2.60
2023-04-02T17:39:26.900Z,2.60
2023-04-02T17:42:04.059Z,2.60
2023-04-02T17:45:06.657Z,2.60
2023-04-02T17:48:19.914Z,2.60
2023-04-02T17:51:27.131Z,2.50
2023-04-02T17:54:14.407Z,2.50
2023-04-02T17:57:00.962Z,2.60
2023-04-02T17:59:51.001Z,2.60
2023-04-02T18:03:04.755Z,2.60
2023-04-02T18:05:59.769Z,2.60
2023-04-02T18:09:06.516Z,2.50
2023-04-02T18:12:01.175Z,2.60
2023-04-02T18:14:46.468Z,2.60
2023-04-02T18:17:22.548Z,2.60
2023-04-02T18:20:03.903Z,2.60
2023-04-02T18:22:56.965Z,2.60
2023-04-02T18:25:53.232Z,2.60
2023-04-02T18:28:50.820Z,2.60
2023-04-02T18:31:32.607Z,2.60
2023-04-02T18:34:41.284Z,2.60
2023-04-02T18:37:28.388Z,2.50
2023-04-02T18:40:28.635Z,2.50
2023-04-02T18:43:22.145Z,2.50
2023-04-02T18:46:05.170Z,2.60
2023-04-02T18:48:43.785Z,2.60
2023-04-02T18:51:30.709Z,2.60
2023-04-02T18:54:25.114Z,2.60
2023-04-02T18:56:59.974Z,2.60
2023-04-02T19:00:04.677Z,2.60
2023-04-02T19:02:50.299Z,2.50
2023-04-02T19:05:27.820Z,2.50
2023-04-02T19:08:03.375Z,2.50
2023-04-02T19:10:40.958Z,2.50
2023-04-02T19:13:21.502Z,2.50
2023-04-02T19:19:49.589Z,2.50
2023-04-02T19:22:50.978Z,2.50
2023-04-02T19:25:37.731Z,2.60
2023-04-02T19:28:13.363Z,2.60
2023-04-02T19:31:00.431Z,2.60
2023-04-02T19:33:45.327Z,2.60
2023-04-02T19:36:39.274Z,2.70
2023-04-02T19:39:47.009Z,2.60
2023-04-02T19:42:25.630Z,2.60
2023-04-02T19:44:58.154Z,2.60
2023-04-02T19:47:26.845Z,2.60
2023-04-02T19:49:57.845Z,2.60
2023-04-02T19:52:30.793Z,2.60
2023-04-02T19:54:59.861Z,2.60
2023-04-02T19:57:28.703Z,2.60
2023-04-02T19:59:57.350Z,2.60
2023-04-02T20:02:30.062Z,2.60
2023-04-02T20:04:58.601Z,2.60
2023-04-02T20:07:34.952Z,2.60
2023-04-02T20:10:08.104Z,2.50
2023-04-02T20:12:41.057Z,2.60
2023-04-02T20:15:13.505Z,2.60
2023-04-02T20:17:42.156Z,2.60
2023-04-02T20:20:16.697Z,2.60
2023-04-02T20:26:02.156Z,2.50
2023-04-02T20:28:36.851Z,2.50
2023-04-02T20:31:30.808Z,2.50
2023-04-02T20:34:14.962Z,2.50
2023-04-02T20:37:03.889Z,2.50
2023-04-02T20:39:38.194Z,2.50
2023-04-02T20:42:36.015Z,2.50
2023-04-02T20:45:17.095Z,2.50
2023-04-02T20:47:50.278Z,2.50
2023-04-02T20:50:40.912Z,2.50
2023-04-02T20:53:25.221Z,2.50
2023-04-02T20:56:06.991Z,2.40
2023-04-02T20:58:36.877Z,2.40
2023-04-02T21:01:19.463Z,2.40
2023-04-02T21:03:55.997Z,2.40
2023-04-02T21:06:28.721Z,2.50
2023-04-02T21:08:57.236Z,2.50
2023-04-02T21:11:30.562Z,2.50
2023-04-02T21:14:03.501Z,2.50
2023-04-02T21:16:37.932Z,2.50
2023-04-02T21:19:11.416Z,2.50
2023-04-02T21:21:49.627Z,2.40
2023-04-02T21:24:19.483Z,2.40
2023-04-02T21:26:49.522Z,2.40
2023-04-02T21:29:18.141Z,2.40
2023-04-02T21:31:46.677Z,2.30
2023-04-02T21:34:17.365Z,2.30
2023-04-02T21:36:50.572Z,2.30
2023-04-02T21:39:21.459Z,2.30
2023-04-02T21:41:53.456Z,2.30
2023-04-02T21:44:23.426Z,2.30
2023-04-02T21:46:54.070Z,2.30
2023-04-02T21:49:23.657Z,2.30
2023-04-02T21:51:52.771Z,2.30
2023-04-02T21:54:21.388Z,2.30
2023-04-02T21:56:51.580Z,2.30
2023-04-02T21:59:21.378Z,2.30
2023-04-02T22:01:51.438Z,2.30
2023-04-02T22:04:21.711Z,2.30
2023-04-02T22:06:51.153Z,2.30
2023-04-02T22:09:26.485Z,2.30
2023-04-02T22:11:59.556Z,2.30
2023-04-02T22:14:31.777Z,2.20
2023-04-02T22:17:21.201Z,2.20
2023-04-02T22:20:30.883Z,2.30
2023-04-02T22:23:08.584Z,2.40
2023-04-02T22:25:47.176Z,2.40
2023-04-02T22:28:20.380Z,2.40
2023-04-02T22:30:53.575Z,2.30
2023-04-02T22:33:42.351Z,2.30
2023-04-02T22:39:59.806Z,2.10
2023-04-02T22:42:35.328Z,2.00
2023-04-02T22:45:23.571Z,1.90
2023-04-02T22:48:20.164Z,1.80
2023-04-02T22:51:29.628Z,1.70
2023-04-02T22:54:08.772Z,1.70
2023-04-02T22:56:55.607Z,1.70
2023-04-02T22:59:47.307Z,1.60
2023-04-02T23:02:17.362Z,1.50
2023-04-02T23:04:53.528Z,1.40
2023-04-02T23:07:34.110Z,1.30
2023-04-02T23:10:04.629Z,1.20
2023-04-02T23:12:34.022Z,1.10
2023-04-02T23:15:20.953Z,1.00
2023-04-02T23:17:52.149Z,1.00
2023-04-02T23:20:30.144Z,0.90
2023-04-02T23:23:05.790Z,0.90
2023-04-02T23:25:55.713Z,0.90
